sensor_id;sensor_type;location;lat;lon;timestamp;P1;durP1;ratioP1;P2;durP2;ratioP2
31386;SDS011;69978;50.096;8.448;2023-12-07T00:00:29;9.57;;;3.03;;
31386;SDS011;69978;50.096;8.448;2023-12-07T00:02:54;9.50;;;2.78;;
31386;SDS011;69978;50.096;8.448;2023-12-07T00:05:20;9.18;;;2.95;;
31386;SDS011;69978;50.096;8.448;2023-12-07T00:07:46;6.47;;;2.50;;
31386;SDS011;69978;50.096;8.448;2023-12-07T00:10:11;8.88;;;3.10;;
31386;SDS011;69978;50.096;8.448;2023-12-07T00:12:37;9.15;;;3.22;;
31386;SDS011;69978;50.096;8.448;2023-12-07T00:15:02;17.20;;;4.28;;
31386;SDS011;69978;50.096;8.448;2023-12-07T00:17:28;15.23;;;4.50;;
31386;SDS011;69978;50.096;8.448;2023-12-07T00:19:54;12.57;;;3.67;;
31386;SDS011;69978;50.096;8.448;2023-12-07T00:22:20;9.98;;;3.70;;
31386;SDS011;69978;50.096;8.448;2023-12-07T00:24:46;9.50;;;3.40;;
31386;SDS011;69978;50.096;8.448;2023-12-07T00:27:11;7.93;;;2.90;;
31386;SDS011;69978;50.096;8.448;2023-12-07T00:29:37;9.20;;;3.28;;
31386;SDS011;69978;50.096;8.448;2023-12-07T00:32:04;11.20;;;3.35;;
31386;SDS011;69978;50.096;8.448;2023-12-07T00:34:30;8.25;;;2.92;;
31386;SDS011;69978;50.096;8.448;2023-12-07T00:36:55;8.88;;;3.03;;
31386;SDS011;69978;50.096;8.448;2023-12-07T00:39:21;8.40;;;2.95;;
31386;SDS011;69978;50.096;8.448;2023-12-07T00:41:46;9.23;;;3.20;;
31386;SDS011;69978;50.096;8.448;2023-12-07T00:44:13;9.45;;;3.25;;
31386;SDS011;69978;50.096;8.448;2023-12-07T00:46:39;11.63;;;3.30;;
31386;SDS011;69978;50.096;8.448;2023-12-07T00:49:05;11.93;;;3.50;;
31386;SDS011;69978;50.096;8.448;2023-12-07T00:51:31;8.30;;;3.20;;
31386;SDS011;69978;50.096;8.448;2023-12-07T00:53:56;10.38;;;3.35;;
31386;SDS011;69978;50.096;8.448;2023-12-07T00:56:23;10.50;;;3.38;;
31386;SDS011;69978;50.096;8.448;2023-12-07T00:58:49;9.23;;;3.10;;
31386;SDS011;69978;50.096;8.448;2023-12-07T01:01:14;10.57;;;3.20;;
31386;SDS011;69978;50.096;8.448;2023-12-07T01:03:40;9.27;;;2.80;;
31386;SDS011;69978;50.096;8.448;2023-12-07T01:06:06;9.25;;;3.20;;
31386;SDS011;69978;50.096;8.448;2023-12-07T01:08:32;9.55;;;3.72;;
31386;SDS011;69978;50.096;8.448;2023-12-07T01:10:57;12.30;;;3.50;;
31386;SDS011;69978;50.096;8.448;2023-12-07T01:13:23;9.95;;;3.70;;
31386;SDS011;69978;50.096;8.448;2023-12-07T01:15:49;9.98;;;3.28;;
31386;SDS011;69978;50.096;8.448;2023-12-07T01:18:15;11.48;;;3.10;;
31386;SDS011;69978;50.096;8.448;2023-12-07T01:20:41;7.45;;;3.10;;
31386;SDS011;69978;50.096;8.448;2023-12-07T01:23:07;7.03;;;2.60;;
31386;SDS011;69978;50.096;8.448;2023-12-07T01:25:36;7.35;;;3.10;;
31386;SDS011;69978;50.096;8.448;2023-12-07T01:28:01;10.52;;;3.35;;
31386;SDS011;69978;50.096;8.448;2023-12-07T01:30:27;7.65;;;2.97;;
31386;SDS011;69978;50.096;8.448;2023-12-07T01:32:52;9.68;;;3.00;;
31386;SDS011;69978;50.096;8.448;2023-12-07T01:35:18;9.25;;;3.13;;
31386;SDS011;69978;50.096;8.448;2023-12-07T01:37:45;10.02;;;3.13;;
31386;SDS011;69978;50.096;8.448;2023-12-07T01:40:11;9.57;;;2.63;;
31386;SDS011;69978;50.096;8.448;2023-12-07T01:42:37;10.25;;;2.80;;
31386;SDS011;69978;50.096;8.448;2023-12-07T01:45:04;6.53;;;2.55;;
31386;SDS011;69978;50.096;8.448;2023-12-07T01:47:30;10.25;;;2.65;;
31386;SDS011;69978;50.096;8.448;2023-12-07T01:49:57;9.77;;;2.90;;
31386;SDS011;69978;50.096;8.448;2023-12-07T01:52:23;7.68;;;2.40;;
31386;SDS011;69978;50.096;8.448;2023-12-07T01:54:51;6.68;;;2.30;;
31386;SDS011;69978;50.096;8.448;2023-12-07T01:57:17;9.63;;;2.53;;
31386;SDS011;69978;50.096;8.448;2023-12-07T01:59:44;9.32;;;2.80;;
31386;SDS011;69978;50.096;8.448;2023-12-07T02:02:11;7.15;;;2.80;;
31386;SDS011;69978;50.096;8.448;2023-12-07T02:04:37;7.00;;;1.92;;
31386;SDS011;69978;50.096;8.448;2023-12-07T02:07:03;12.55;;;2.42;;
31386;SDS011;69978;50.096;8.448;2023-12-07T02:09:29;6.95;;;2.30;;
31386;SDS011;69978;50.096;8.448;2023-12-07T02:11:55;7.38;;;2.50;;
31386;SDS011;69978;50.096;8.448;2023-12-07T02:14:21;7.72;;;2.85;;
31386;SDS011;69978;50.096;8.448;2023-12-07T02:19:52;13.60;;;2.88;;
31386;SDS011;69978;50.096;8.448;2023-12-07T02:22:38;13.02;;;3.20;;
31386;SDS011;69978;50.096;8.448;2023-12-07T02:25:14;9.77;;;3.05;;
31386;SDS011;69978;50.096;8.448;2023-12-07T02:27:40;5.75;;;2.20;;
31386;SDS011;69978;50.096;8.448;2023-12-07T02:30:11;7.00;;;2.60;;
31386;SDS011;69978;50.096;8.448;2023-12-07T02:32:37;11.05;;;2.58;;
31386;SDS011;69978;50.096;8.448;2023-12-07T02:35:07;7.80;;;2.55;;
31386;SDS011;69978;50.096;8.448;2023-12-07T02:37:40;9.30;;;2.70;;
31386;SDS011;69978;50.096;8.448;2023-12-07T02:40:10;8.25;;;2.30;;
31386;SDS011;69978;50.096;8.448;2023-12-07T02:42:40;9.10;;;2.13;;
31386;SDS011;69978;50.096;8.448;2023-12-07T02:45:08;7.25;;;2.30;;
31386;SDS011;69978;50.096;8.448;2023-12-07T02:47:34;10.00;;;2.17;;
31386;SDS011;69978;50.096;8.448;2023-12-07T02:50:00;6.43;;;2.30;;
31386;SDS011;69978;50.096;8.448;2023-12-07T02:52:26;5.57;;;2.20;;
31386;SDS011;69978;50.096;8.448;2023-12-07T02:54:51;9.18;;;1.98;;
31386;SDS011;69978;50.096;8.448;2023-12-07T02:57:17;5.40;;;2.20;;
31386;SDS011;69978;50.096;8.448;2023-12-07T02:59:42;4.63;;;2.08;;
31386;SDS011;69978;50.096;8.448;2023-12-07T03:02:08;4.30;;;2.03;;
31386;SDS011;69978;50.096;8.448;2023-12-07T03:04:34;6.05;;;2.25;;
31386;SDS011;69978;50.096;8.448;2023-12-07T03:06:59;5.72;;;2.10;;
31386;SDS011;69978;50.096;8.448;2023-12-07T03:09:25;3.60;;;1.73;;
31386;SDS011;69978;50.096;8.448;2023-12-07T03:11:51;8.13;;;2.35;;
31386;SDS011;69978;50.096;8.448;2023-12-07T03:14:16;5.00;;;2.17;;
31386;SDS011;69978;50.096;8.448;2023-12-07T03:16:42;8.63;;;2.28;;
31386;SDS011;69978;50.096;8.448;2023-12-07T03:19:07;7.38;;;2.38;;
31386;SDS011;69978;50.096;8.448;2023-12-07T03:21:33;7.32;;;2.50;;
31386;SDS011;69978;50.096;8.448;2023-12-07T03:23:59;11.07;;;2.55;;
31386;SDS011;69978;50.096;8.448;2023-12-07T03:26:24;10.85;;;3.15;;
31386;SDS011;69978;50.096;8.448;2023-12-07T03:28:50;12.68;;;3.20;;
31386;SDS011;69978;50.096;8.448;2023-12-07T03:31:16;7.93;;;2.92;;
31386;SDS011;69978;50.096;8.448;2023-12-07T03:33:41;10.00;;;2.95;;
31386;SDS011;69978;50.096;8.448;2023-12-07T03:36:10;8.77;;;3.00;;
31386;SDS011;69978;50.096;8.448;2023-12-07T03:38:36;8.05;;;2.95;;
31386;SDS011;69978;50.096;8.448;2023-12-07T03:41:02;7.07;;;2.97;;
31386;SDS011;69978;50.096;8.448;2023-12-07T03:43:28;13.95;;;3.08;;
31386;SDS011;69978;50.096;8.448;2023-12-07T03:45:54;5.00;;;2.55;;
31386;SDS011;69978;50.096;8.448;2023-12-07T03:48:20;9.73;;;3.15;;
31386;SDS011;69978;50.096;8.448;2023-12-07T03:50:46;8.52;;;2.92;;
31386;SDS011;69978;50.096;8.448;2023-12-07T03:53:11;6.85;;;2.65;;
31386;SDS011;69978;50.096;8.448;2023-12-07T03:55:37;10.05;;;3.03;;
31386;SDS011;69978;50.096;8.448;2023-12-07T03:58:04;6.38;;;2.55;;
31386;SDS011;69978;50.096;8.448;2023-12-07T04:00:30;9.38;;;2.80;;
31386;SDS011;69978;50.096;8.448;2023-12-07T04:02:57;8.50;;;2.50;;
31386;SDS011;69978;50.096;8.448;2023-12-07T04:05:22;6.88;;;2.20;;
31386;SDS011;69978;50.096;8.448;2023-12-07T04:07:48;8.70;;;2.47;;
31386;SDS011;69978;50.096;8.448;2023-12-07T04:10:14;7.32;;;2.60;;
31386;SDS011;69978;50.096;8.448;2023-12-07T04:12:39;8.65;;;2.95;;
31386;SDS011;69978;50.096;8.448;2023-12-07T04:15:05;6.68;;;2.30;;
31386;SDS011;69978;50.096;8.448;2023-12-07T04:17:31;7.10;;;2.40;;
31386;SDS011;69978;50.096;8.448;2023-12-07T04:19:57;10.68;;;2.50;;
31386;SDS011;69978;50.096;8.448;2023-12-07T04:22:23;11.68;;;2.47;;
31386;SDS011;69978;50.096;8.448;2023-12-07T04:24:48;7.53;;;2.25;;
31386;SDS011;69978;50.096;8.448;2023-12-07T04:27:14;6.30;;;2.53;;
31386;SDS011;69978;50.096;8.448;2023-12-07T04:29:40;9.38;;;2.53;;
31386;SDS011;69978;50.096;8.448;2023-12-07T04:32:06;9.32;;;2.50;;
31386;SDS011;69978;50.096;8.448;2023-12-07T04:34:34;7.60;;;2.83;;
31386;SDS011;69978;50.096;8.448;2023-12-07T04:36:59;6.72;;;2.28;;
31386;SDS011;69978;50.096;8.448;2023-12-07T04:39:25;6.40;;;2.25;;
31386;SDS011;69978;50.096;8.448;2023-12-07T04:41:51;6.43;;;2.60;;
31386;SDS011;69978;50.096;8.448;2023-12-07T04:44:16;8.50;;;2.95;;
31386;SDS011;69978;50.096;8.448;2023-12-07T04:46:42;7.07;;;2.20;;
31386;SDS011;69978;50.096;8.448;2023-12-07T04:49:08;12.15;;;2.80;;
31386;SDS011;69978;50.096;8.448;2023-12-07T04:51:33;6.13;;;2.70;;
31386;SDS011;69978;50.096;8.448;2023-12-07T04:53:59;10.38;;;2.53;;
31386;SDS011;69978;50.096;8.448;2023-12-07T04:56:25;7.00;;;2.70;;
31386;SDS011;69978;50.096;8.448;2023-12-07T04:58:50;12.60;;;3.00;;
31386;SDS011;69978;50.096;8.448;2023-12-07T05:01:16;11.20;;;2.83;;
31386;SDS011;69978;50.096;8.448;2023-12-07T05:03:44;9.80;;;2.85;;
31386;SDS011;69978;50.096;8.448;2023-12-07T05:06:09;6.20;;;2.35;;
31386;SDS011;69978;50.096;8.448;2023-12-07T05:08:35;11.68;;;2.90;;
31386;SDS011;69978;50.096;8.448;2023-12-07T05:11:02;8.80;;;2.63;;
31386;SDS011;69978;50.096;8.448;2023-12-07T05:13:28;7.75;;;2.50;;
31386;SDS011;69978;50.096;8.448;2023-12-07T05:15:53;7.18;;;2.60;;
31386;SDS011;69978;50.096;8.448;2023-12-07T05:18:19;10.40;;;2.58;;
31386;SDS011;69978;50.096;8.448;2023-12-07T05:20:45;7.82;;;2.88;;
31386;SDS011;69978;50.096;8.448;2023-12-07T05:23:10;6.88;;;2.63;;
31386;SDS011;69978;50.096;8.448;2023-12-07T05:25:36;6.72;;;2.63;;
31386;SDS011;69978;50.096;8.448;2023-12-07T05:28:01;18.08;;;4.70;;
31386;SDS011;69978;50.096;8.448;2023-12-07T05:30:28;11.93;;;3.83;;
31386;SDS011;69978;50.096;8.448;2023-12-07T05:32:54;10.52;;;3.45;;
31386;SDS011;69978;50.096;8.448;2023-12-07T05:35:19;24.23;;;5.50;;
31386;SDS011;69978;50.096;8.448;2023-12-07T05:37:45;18.08;;;5.15;;
31386;SDS011;69978;50.096;8.448;2023-12-07T05:40:11;21.67;;;5.72;;
31386;SDS011;69978;50.096;8.448;2023-12-07T05:42:39;9.40;;;3.22;;
31386;SDS011;69978;50.096;8.448;2023-12-07T05:45:05;9.65;;;3.50;;
31386;SDS011;69978;50.096;8.448;2023-12-07T05:47:31;9.45;;;3.63;;
31386;SDS011;69978;50.096;8.448;2023-12-07T05:49:57;10.63;;;3.15;;
31386;SDS011;69978;50.096;8.448;2023-12-07T05:52:24;10.15;;;3.13;;
31386;SDS011;69978;50.096;8.448;2023-12-07T05:54:50;8.63;;;2.88;;
31386;SDS011;69978;50.096;8.448;2023-12-07T05:57:16;14.27;;;3.50;;
31386;SDS011;69978;50.096;8.448;2023-12-07T05:59:42;13.48;;;3.20;;
31386;SDS011;69978;50.096;8.448;2023-12-07T06:02:08;9.15;;;3.30;;
31386;SDS011;69978;50.096;8.448;2023-12-07T06:04:34;10.48;;;3.22;;
31386;SDS011;69978;50.096;8.448;2023-12-07T06:07:00;14.02;;;4.47;;
31386;SDS011;69978;50.096;8.448;2023-12-07T06:09:25;12.57;;;4.22;;
31386;SDS011;69978;50.096;8.448;2023-12-07T06:11:51;13.80;;;3.95;;
31386;SDS011;69978;50.096;8.448;2023-12-07T06:14:17;12.88;;;3.50;;
31386;SDS011;69978;50.096;8.448;2023-12-07T06:16:42;13.73;;;4.50;;
31386;SDS011;69978;50.096;8.448;2023-12-07T06:19:08;18.27;;;4.22;;
31386;SDS011;69978;50.096;8.448;2023-12-07T06:21:33;20.20;;;5.97;;
31386;SDS011;69978;50.096;8.448;2023-12-07T06:23:59;14.90;;;5.03;;
31386;SDS011;69978;50.096;8.448;2023-12-07T06:26:25;20.02;;;6.50;;
31386;SDS011;69978;50.096;8.448;2023-12-07T06:28:51;32.38;;;6.60;;
31386;SDS011;69978;50.096;8.448;2023-12-07T06:31:16;21.17;;;5.97;;
31386;SDS011;69978;50.096;8.448;2023-12-07T06:33:46;17.98;;;5.35;;
31386;SDS011;69978;50.096;8.448;2023-12-07T06:36:17;17.98;;;4.97;;
31386;SDS011;69978;50.096;8.448;2023-12-07T06:38:44;16.33;;;4.47;;
31386;SDS011;69978;50.096;8.448;2023-12-07T06:41:09;15.48;;;4.47;;
31386;SDS011;69978;50.096;8.448;2023-12-07T06:43:35;15.48;;;4.18;;
31386;SDS011;69978;50.096;8.448;2023-12-07T06:46:01;14.90;;;4.78;;
31386;SDS011;69978;50.096;8.448;2023-12-07T06:48:26;12.40;;;3.83;;
31386;SDS011;69978;50.096;8.448;2023-12-07T06:50:52;11.05;;;3.97;;
31386;SDS011;69978;50.096;8.448;2023-12-07T06:53:17;11.55;;;3.75;;
31386;SDS011;69978;50.096;8.448;2023-12-07T06:55:43;17.90;;;4.38;;
31386;SDS011;69978;50.096;8.448;2023-12-07T06:58:09;12.57;;;3.95;;
31386;SDS011;69978;50.096;8.448;2023-12-07T07:00:35;16.02;;;4.32;;
31386;SDS011;69978;50.096;8.448;2023-12-07T07:03:01;11.00;;;4.03;;
31386;SDS011;69978;50.096;8.448;2023-12-07T07:05:27;10.85;;;3.55;;
31386;SDS011;69978;50.096;8.448;2023-12-07T07:07:54;10.95;;;3.55;;
31386;SDS011;69978;50.096;8.448;2023-12-07T07:10:20;15.38;;;4.88;;
31386;SDS011;69978;50.096;8.448;2023-12-07T07:12:46;14.15;;;4.13;;
31386;SDS011;69978;50.096;8.448;2023-12-07T07:15:12;10.45;;;3.75;;
31386;SDS011;69978;50.096;8.448;2023-12-07T07:17:37;13.35;;;4.00;;
31386;SDS011;69978;50.096;8.448;2023-12-07T07:20:03;16.63;;;4.38;;
31386;SDS011;69978;50.096;8.448;2023-12-07T07:22:29;11.10;;;4.00;;
31386;SDS011;69978;50.096;8.448;2023-12-07T07:24:55;12.43;;;3.80;;
31386;SDS011;69978;50.096;8.448;2023-12-07T07:27:21;17.85;;;4.90;;
31386;SDS011;69978;50.096;8.448;2023-12-07T07:29:46;13.60;;;4.30;;
31386;SDS011;69978;50.096;8.448;2023-12-07T07:32:12;20.60;;;6.15;;
31386;SDS011;69978;50.096;8.448;2023-12-07T07:34:38;19.90;;;6.05;;
31386;SDS011;69978;50.096;8.448;2023-12-07T07:37:04;20.67;;;6.15;;
31386;SDS011;69978;50.096;8.448;2023-12-07T07:39:32;20.50;;;5.93;;
31386;SDS011;69978;50.096;8.448;2023-12-07T07:41:57;15.45;;;5.63;;
31386;SDS011;69978;50.096;8.448;2023-12-07T07:44:23;20.30;;;5.60;;
31386;SDS011;69978;50.096;8.448;2023-12-07T07:46:48;20.00;;;5.32;;
31386;SDS011;69978;50.096;8.448;2023-12-07T07:49:14;24.08;;;6.80;;
31386;SDS011;69978;50.096;8.448;2023-12-07T07:51:40;17.02;;;5.78;;
31386;SDS011;69978;50.096;8.448;2023-12-07T07:54:05;16.95;;;5.18;;
31386;SDS011;69978;50.096;8.448;2023-12-07T07:56:31;13.38;;;5.05;;
31386;SDS011;69978;50.096;8.448;2023-12-07T07:58:56;15.07;;;5.32;;
31386;SDS011;69978;50.096;8.448;2023-12-07T08:01:25;20.65;;;5.45;;
31386;SDS011;69978;50.096;8.448;2023-12-07T08:03:51;17.05;;;5.30;;
31386;SDS011;69978;50.096;8.448;2023-12-07T08:06:16;13.32;;;5.03;;
31386;SDS011;69978;50.096;8.448;2023-12-07T08:08:44;23.52;;;5.45;;
31386;SDS011;69978;50.096;8.448;2023-12-07T08:11:09;21.33;;;6.82;;
31386;SDS011;69978;50.096;8.448;2023-12-07T08:13:35;21.55;;;5.97;;
31386;SDS011;69978;50.096;8.448;2023-12-07T08:16:01;24.10;;;6.22;;
31386;SDS011;69978;50.096;8.448;2023-12-07T08:18:26;24.90;;;7.13;;
31386;SDS011;69978;50.096;8.448;2023-12-07T08:20:52;20.00;;;6.15;;
31386;SDS011;69978;50.096;8.448;2023-12-07T08:23:18;18.15;;;5.30;;
31386;SDS011;69978;50.096;8.448;2023-12-07T08:25:43;16.25;;;5.78;;
31386;SDS011;69978;50.096;8.448;2023-12-07T08:28:09;17.52;;;6.03;;
31386;SDS011;69978;50.096;8.448;2023-12-07T08:30:35;18.33;;;6.53;;
31386;SDS011;69978;50.096;8.448;2023-12-07T08:33:01;19.02;;;6.47;;
31386;SDS011;69978;50.096;8.448;2023-12-07T08:35:27;18.83;;;6.60;;
31386;SDS011;69978;50.096;8.448;2023-12-07T08:37:52;22.50;;;6.55;;
31386;SDS011;69978;50.096;8.448;2023-12-07T08:40:18;23.40;;;7.40;;
31386;SDS011;69978;50.096;8.448;2023-12-07T08:42:44;20.23;;;6.65;;
31386;SDS011;69978;50.096;8.448;2023-12-07T08:45:11;22.88;;;7.32;;
31386;SDS011;69978;50.096;8.448;2023-12-07T08:47:38;27.95;;;7.03;;
31386;SDS011;69978;50.096;8.448;2023-12-07T08:50:04;22.00;;;6.05;;
31386;SDS011;69978;50.096;8.448;2023-12-07T08:52:32;23.38;;;6.00;;
31386;SDS011;69978;50.096;8.448;2023-12-07T08:54:58;25.10;;;7.35;;
31386;SDS011;69978;50.096;8.448;2023-12-07T08:57:25;33.40;;;7.90;;
31386;SDS011;69978;50.096;8.448;2023-12-07T08:59:50;36.58;;;7.43;;
31386;SDS011;69978;50.096;8.448;2023-12-07T09:02:16;41.35;;;8.90;;
31386;SDS011;69978;50.096;8.448;2023-12-07T09:04:43;44.95;;;8.23;;
31386;SDS011;69978;50.096;8.448;2023-12-07T09:07:11;28.13;;;7.65;;
31386;SDS011;69978;50.096;8.448;2023-12-07T09:09:40;21.23;;;6.43;;
31386;SDS011;69978;50.096;8.448;2023-12-07T09:12:11;24.80;;;7.72;;
31386;SDS011;69978;50.096;8.448;2023-12-07T09:14:37;27.13;;;7.75;;
31386;SDS011;69978;50.096;8.448;2023-12-07T09:17:03;25.85;;;6.97;;
31386;SDS011;69978;50.096;8.448;2023-12-07T09:19:30;23.70;;;7.15;;
31386;SDS011;69978;50.096;8.448;2023-12-07T09:21:56;19.02;;;6.53;;
31386;SDS011;69978;50.096;8.448;2023-12-07T09:24:21;25.35;;;7.30;;
31386;SDS011;69978;50.096;8.448;2023-12-07T09:26:47;39.35;;;7.20;;
31386;SDS011;69978;50.096;8.448;2023-12-07T09:29:13;20.05;;;6.10;;
31386;SDS011;69978;50.096;8.448;2023-12-07T09:31:39;22.33;;;5.80;;
31386;SDS011;69978;50.096;8.448;2023-12-07T09:34:05;22.83;;;6.18;;
31386;SDS011;69978;50.096;8.448;2023-12-07T09:36:30;18.90;;;5.93;;
31386;SDS011;69978;50.096;8.448;2023-12-07T09:38:57;18.58;;;5.20;;
31386;SDS011;69978;50.096;8.448;2023-12-07T09:41:23;18.65;;;5.82;;
31386;SDS011;69978;50.096;8.448;2023-12-07T09:43:49;21.75;;;5.95;;
31386;SDS011;69978;50.096;8.448;2023-12-07T09:46:14;21.92;;;6.10;;
31386;SDS011;69978;50.096;8.448;2023-12-07T09:48:42;24.58;;;6.45;;
31386;SDS011;69978;50.096;8.448;2023-12-07T09:51:09;24.05;;;7.57;;
31386;SDS011;69978;50.096;8.448;2023-12-07T09:53:36;22.05;;;7.30;;
31386;SDS011;69978;50.096;8.448;2023-12-07T09:56:04;20.27;;;5.72;;
31386;SDS011;69978;50.096;8.448;2023-12-07T09:58:30;17.27;;;5.57;;
31386;SDS011;69978;50.096;8.448;2023-12-07T10:00:56;14.63;;;5.40;;
31386;SDS011;69978;50.096;8.448;2023-12-07T10:03:22;15.25;;;5.20;;
31386;SDS011;69978;50.096;8.448;2023-12-07T10:05:54;17.83;;;5.30;;
31386;SDS011;69978;50.096;8.448;2023-12-07T10:08:31;14.85;;;5.43;;
31386;SDS011;69978;50.096;8.448;2023-12-07T10:11:01;15.30;;;5.20;;
31386;SDS011;69978;50.096;8.448;2023-12-07T10:13:32;17.90;;;5.07;;
31386;SDS011;69978;50.096;8.448;2023-12-07T10:16:13;10.70;;;4.47;;
31386;SDS011;69978;50.096;8.448;2023-12-07T10:18:40;12.27;;;4.32;;
31386;SDS011;69978;50.096;8.448;2023-12-07T10:21:09;10.02;;;3.97;;
31386;SDS011;69978;50.096;8.448;2023-12-07T10:23:36;10.93;;;4.15;;
31386;SDS011;69978;50.096;8.448;2023-12-07T10:26:02;9.82;;;4.07;;
31386;SDS011;69978;50.096;8.448;2023-12-07T10:28:30;13.73;;;4.63;;
31386;SDS011;69978;50.096;8.448;2023-12-07T10:30:56;13.07;;;5.00;;
31386;SDS011;69978;50.096;8.448;2023-12-07T10:33:22;14.52;;;5.35;;
31386;SDS011;69978;50.096;8.448;2023-12-07T10:35:48;13.50;;;5.13;;
31386;SDS011;69978;50.096;8.448;2023-12-07T10:38:15;13.95;;;5.25;;
31386;SDS011;69978;50.096;8.448;2023-12-07T10:40:40;14.45;;;5.70;;
31386;SDS011;69978;50.096;8.448;2023-12-07T10:43:07;18.17;;;6.05;;
31386;SDS011;69978;50.096;8.448;2023-12-07T10:45:33;29.52;;;7.72;;
31386;SDS011;69978;50.096;8.448;2023-12-07T10:48:04;26.90;;;7.80;;
31386;SDS011;69978;50.096;8.448;2023-12-07T10:53:33;27.48;;;7.63;;
31386;SDS011;69978;50.096;8.448;2023-12-07T10:56:05;21.35;;;6.85;;
31386;SDS011;69978;50.096;8.448;2023-12-07T10:58:35;33.03;;;7.50;;
31386;SDS011;69978;50.096;8.448;2023-12-07T11:01:01;24.08;;;7.88;;
31386;SDS011;69978;50.096;8.448;2023-12-07T11:03:27;21.80;;;6.43;;
31386;SDS011;69978;50.096;8.448;2023-12-07T11:05:54;26.45;;;7.68;;
31386;SDS011;69978;50.096;8.448;2023-12-07T11:13:52;29.65;;;8.52;;
31386;SDS011;69978;50.096;8.448;2023-12-07T11:16:32;27.42;;;8.57;;
31386;SDS011;69978;50.096;8.448;2023-12-07T11:19:03;27.85;;;8.45;;
31386;SDS011;69978;50.096;8.448;2023-12-07T11:21:31;29.15;;;8.02;;
31386;SDS011;69978;50.096;8.448;2023-12-07T11:24:00;38.13;;;9.13;;
31386;SDS011;69978;50.096;8.448;2023-12-07T11:26:27;27.33;;;8.45;;
31386;SDS011;69978;50.096;8.448;2023-12-07T11:28:53;28.58;;;8.32;;
31386;SDS011;69978;50.096;8.448;2023-12-07T11:31:20;28.48;;;8.40;;
31386;SDS011;69978;50.096;8.448;2023-12-07T11:33:46;26.08;;;8.65;;
31386;SDS011;69978;50.096;8.448;2023-12-07T11:36:13;28.33;;;8.65;;
31386;SDS011;69978;50.096;8.448;2023-12-07T11:41:33;26.55;;;8.50;;
31386;SDS011;69978;50.096;8.448;2023-12-07T11:44:00;25.20;;;8.13;;
31386;SDS011;69978;50.096;8.448;2023-12-07T11:46:26;26.85;;;7.65;;
31386;SDS011;69978;50.096;8.448;2023-12-07T11:48:52;28.20;;;8.07;;
31386;SDS011;69978;50.096;8.448;2023-12-07T11:51:19;27.40;;;8.73;;
31386;SDS011;69978;50.096;8.448;2023-12-07T11:53:44;31.20;;;8.93;;
31386;SDS011;69978;50.096;8.448;2023-12-07T11:56:10;34.42;;;8.88;;
31386;SDS011;69978;50.096;8.448;2023-12-07T11:58:37;31.38;;;9.07;;
31386;SDS011;69978;50.096;8.448;2023-12-07T12:01:03;34.70;;;9.32;;
31386;SDS011;69978;50.096;8.448;2023-12-07T12:03:29;35.63;;;9.20;;
31386;SDS011;69978;50.096;8.448;2023-12-07T12:05:59;38.75;;;9.75;;
31386;SDS011;69978;50.096;8.448;2023-12-07T12:08:27;35.88;;;9.85;;
31386;SDS011;69978;50.096;8.448;2023-12-07T12:10:53;41.20;;;10.60;;
31386;SDS011;69978;50.096;8.448;2023-12-07T12:13:25;35.55;;;10.07;;
31386;SDS011;69978;50.096;8.448;2023-12-07T12:15:53;39.70;;;9.45;;
31386;SDS011;69978;50.096;8.448;2023-12-07T12:18:18;30.33;;;9.02;;
31386;SDS011;69978;50.096;8.448;2023-12-07T12:20:45;28.27;;;7.95;;
31386;SDS011;69978;50.096;8.448;2023-12-07T12:23:11;34.95;;;8.75;;
31386;SDS011;69978;50.096;8.448;2023-12-07T12:25:36;27.73;;;7.60;;
31386;SDS011;69978;50.096;8.448;2023-12-07T12:28:03;31.88;;;8.60;;
31386;SDS011;69978;50.096;8.448;2023-12-07T12:30:30;31.27;;;7.68;;
31386;SDS011;69978;50.096;8.448;2023-12-07T12:32:56;34.03;;;8.05;;
31386;SDS011;69978;50.096;8.448;2023-12-07T12:35:22;31.75;;;8.57;;
31386;SDS011;69978;50.096;8.448;2023-12-07T12:37:49;28.48;;;8.40;;
31386;SDS011;69978;50.096;8.448;2023-12-07T12:40:18;30.48;;;7.57;;
31386;SDS011;69978;50.096;8.448;2023-12-07T12:42:45;29.67;;;8.55;;
31386;SDS011;69978;50.096;8.448;2023-12-07T12:45:12;32.40;;;8.40;;
31386;SDS011;69978;50.096;8.448;2023-12-07T12:47:46;35.72;;;9.02;;
31386;SDS011;69978;50.096;8.448;2023-12-07T12:50:31;33.28;;;10.00;;
31386;SDS011;69978;50.096;8.448;2023-12-07T12:53:05;35.70;;;9.55;;
31386;SDS011;69978;50.096;8.448;2023-12-07T12:55:35;41.92;;;9.88;;
31386;SDS011;69978;50.096;8.448;2023-12-07T12:58:06;43.25;;;10.10;;
31386;SDS011;69978;50.096;8.448;2023-12-07T13:00:34;41.67;;;10.10;;
31386;SDS011;69978;50.096;8.448;2023-12-07T13:03:03;37.42;;;9.60;;
31386;SDS011;69978;50.096;8.448;2023-12-07T13:05:30;49.45;;;9.93;;
31386;SDS011;69978;50.096;8.448;2023-12-07T13:07:57;39.17;;;9.43;;
31386;SDS011;69978;50.096;8.448;2023-12-07T13:10:25;39.13;;;9.63;;
31386;SDS011;69978;50.096;8.448;2023-12-07T13:12:50;38.55;;;10.15;;
31386;SDS011;69978;50.096;8.448;2023-12-07T13:15:16;42.53;;;10.13;;
31386;SDS011;69978;50.096;8.448;2023-12-07T13:17:42;48.38;;;11.68;;
31386;SDS011;69978;50.096;8.448;2023-12-07T13:20:08;43.00;;;11.35;;
31386;SDS011;69978;50.096;8.448;2023-12-07T13:22:39;46.95;;;11.70;;
31386;SDS011;69978;50.096;8.448;2023-12-07T13:25:08;45.35;;;10.73;;
31386;SDS011;69978;50.096;8.448;2023-12-07T13:27:34;42.72;;;10.57;;
31386;SDS011;69978;50.096;8.448;2023-12-07T13:30:01;49.53;;;11.45;;
31386;SDS011;69978;50.096;8.448;2023-12-07T13:32:30;45.63;;;10.90;;
31386;SDS011;69978;50.096;8.448;2023-12-07T13:35:02;47.22;;;10.30;;
31386;SDS011;69978;50.096;8.448;2023-12-07T13:37:28;38.95;;;9.98;;
31386;SDS011;69978;50.096;8.448;2023-12-07T13:39:54;36.85;;;9.65;;
31386;SDS011;69978;50.096;8.448;2023-12-07T13:42:26;36.95;;;10.05;;
31386;SDS011;69978;50.096;8.448;2023-12-07T13:44:55;40.95;;;9.20;;
31386;SDS011;69978;50.096;8.448;2023-12-07T13:47:25;47.95;;;10.25;;
31386;SDS011;69978;50.096;8.448;2023-12-07T13:49:56;50.30;;;13.23;;
31386;SDS011;69978;50.096;8.448;2023-12-07T13:52:25;30.95;;;8.88;;
31386;SDS011;69978;50.096;8.448;2023-12-07T13:54:51;41.53;;;10.18;;
31386;SDS011;69978;50.096;8.448;2023-12-07T13:57:18;36.35;;;9.85;;
31386;SDS011;69978;50.096;8.448;2023-12-07T13:59:45;30.77;;;8.00;;
31386;SDS011;69978;50.096;8.448;2023-12-07T14:02:10;26.67;;;7.68;;
31386;SDS011;69978;50.096;8.448;2023-12-07T14:04:36;30.65;;;8.40;;
31386;SDS011;69978;50.096;8.448;2023-12-07T14:07:09;30.63;;;8.90;;
31386;SDS011;69978;50.096;8.448;2023-12-07T14:09:36;32.15;;;8.57;;
31386;SDS011;69978;50.096;8.448;2023-12-07T14:12:03;34.28;;;9.85;;
31386;SDS011;69978;50.096;8.448;2023-12-07T14:14:29;35.92;;;8.98;;
31386;SDS011;69978;50.096;8.448;2023-12-07T14:16:54;33.33;;;8.77;;
31386;SDS011;69978;50.096;8.448;2023-12-07T14:19:20;31.60;;;8.95;;
31386;SDS011;69978;50.096;8.448;2023-12-07T14:21:46;29.48;;;8.65;;
31386;SDS011;69978;50.096;8.448;2023-12-07T14:24:12;32.50;;;7.95;;
31386;SDS011;69978;50.096;8.448;2023-12-07T14:26:41;36.58;;;9.10;;
31386;SDS011;69978;50.096;8.448;2023-12-07T14:29:08;29.70;;;8.52;;
31386;SDS011;69978;50.096;8.448;2023-12-07T14:31:34;30.77;;;7.95;;
31386;SDS011;69978;50.096;8.448;2023-12-07T14:34:02;30.83;;;8.65;;
31386;SDS011;69978;50.096;8.448;2023-12-07T14:36:28;30.25;;;8.38;;
31386;SDS011;69978;50.096;8.448;2023-12-07T14:38:54;30.42;;;8.13;;
31386;SDS011;69978;50.096;8.448;2023-12-07T14:41:20;30.73;;;8.10;;
31386;SDS011;69978;50.096;8.448;2023-12-07T14:43:47;31.75;;;8.90;;
31386;SDS011;69978;50.096;8.448;2023-12-07T14:46:13;32.75;;;9.07;;
31386;SDS011;69978;50.096;8.448;2023-12-07T14:48:39;36.38;;;9.10;;